createdAt,value
2019-03-29T00:01:46.424Z,99.90
2019-03-29T00:06:51.178Z,99.90
2019-03-29T00:11:55.998Z,99.90
2019-03-29T00:17:00.747Z,99.90
2019-03-29T00:22:05.507Z,99.90
2019-03-29T00:27:10.336Z,99.90
2019-03-29T00:32:15.080Z,99.90
2019-03-29T00:37:19.886Z,99.90
2019-03-29T00:42:24.694Z,99.90
2019-03-29T00:47:30.042Z,99.90
2019-03-29T00:52:34.994Z,99.90
2019-03-29T00:57:39.761Z,99.90
2019-03-29T01:02:44.933Z,99.90
2019-03-29T01:07:50.098Z,99.90
2019-03-29T01:12:55.000Z,99.90
2019-03-29T01:17:59.819Z,99.90
2019-03-29T01:23:04.728Z,99.90
2019-03-29T01:28:09.523Z,99.90
2019-03-29T01:33:14.348Z,99.90
2019-03-29T01:38:22.138Z,99.90
2019-03-29T01:43:25.579Z,99.90
2019-03-29T01:48:30.277Z,99.90
2019-03-29T01:53:35.039Z,99.90
2019-03-29T01:58:39.859Z,99.90
2019-03-29T02:03:44.574Z,99.90
2019-03-29T02:08:49.329Z,99.90
2019-03-29T02:13:54.158Z,99.90
2019-03-29T02:18:58.978Z,99.90
2019-03-29T02:24:04.098Z,99.90
2019-03-29T02:29:08.842Z,99.90
2019-03-29T02:34:15.702Z,99.90
2019-03-29T02:39:21.073Z,99.90
2019-03-29T02:44:25.900Z,99.90
2019-03-29T02:49:30.695Z,99.90
2019-03-29T02:54:35.429Z,99.90
2019-03-29T02:59:40.182Z,99.90
2019-03-29T03:04:44.942Z,99.90
2019-03-29T03:09:49.693Z,99.90
2019-03-29T03:14:54.485Z,99.90
2019-03-29T03:19:59.234Z,99.90
2019-03-29T03:25:04.191Z,99.90
2019-03-29T03:30:10.775Z,99.90
2019-03-29T03:35:17.545Z,99.90
2019-03-29T03:40:22.355Z,99.90
2019-03-29T03:45:27.500Z,99.90
2019-03-29T03:50:42.344Z,99.90
2019-03-29T03:55:47.137Z,99.90
2019-03-29T04:00:56.917Z,99.90
2019-03-29T04:06:01.842Z,99.90
2019-03-29T04:11:06.578Z,99.90
2019-03-29T04:16:11.305Z,99.90
2019-03-29T04:21:16.140Z,99.90
2019-03-29T04:26:20.876Z,99.90
2019-03-29T04:31:25.723Z,99.90
2019-03-29T04:36:30.540Z,99.90
2019-03-29T04:41:35.276Z,99.90
2019-03-29T04:46:40.050Z,99.90
2019-03-29T04:51:44.925Z,99.90
2019-03-29T04:56:49.642Z,99.90
2019-03-29T05:01:54.375Z,99.90
2019-03-29T05:06:59.111Z,99.90
2019-03-29T05:12:03.855Z,99.90
2019-03-29T05:17:08.621Z,99.90
2019-03-29T05:22:13.354Z,99.90
2019-03-29T05:27:18.099Z,99.90
2019-03-29T05:32:24.959Z,99.90
2019-03-29T05:37:29.707Z,99.90
2019-03-29T05:42:34.575Z,99.90
2019-03-29T05:47:39.373Z,99.90
2019-03-29T05:52:44.103Z,99.90
2019-03-29T05:57:48.854Z,99.90
2019-03-29T06:02:53.585Z,99.90
2019-03-29T06:07:58.401Z,99.90
2019-03-29T06:13:03.091Z,99.90
2019-03-29T06:18:07.904Z,99.90
2019-03-29T06:23:12.665Z,99.90
2019-03-29T06:28:17.511Z,99.90
2019-03-29T06:33:23.173Z,99.90
2019-03-29T06:38:29.819Z,99.90
2019-03-29T06:43:34.585Z,99.90
2019-03-29T06:48:39.349Z,99.90
2019-03-29T06:53:47.471Z,99.90
2019-03-29T06:58:52.417Z,99.90
2019-03-29T07:03:57.172Z,99.90
2019-03-29T07:09:01.939Z,99.90
2019-03-29T07:14:06.714Z,99.90
2019-03-29T07:19:11.465Z,99.90
2019-03-29T07:24:16.190Z,99.90
2019-03-29T07:29:21.006Z,99.90
2019-03-29T07:34:25.736Z,99.90
2019-03-29T07:39:30.454Z,99.90
2019-03-29T07:44:35.333Z,95.70
2019-03-29T07:54:44.165Z,83.00
2019-03-29T07:59:50.490Z,77.50
2019-03-29T08:04:55.503Z,72.70
2019-03-29T08:10:03.306Z,64.20
2019-03-29T08:20:38.028Z,61.70
2019-03-29T08:25:19.272Z,58.90
2019-03-29T08:30:24.037Z,56.10
2019-03-29T08:35:28.787Z,53.80
2019-03-29T08:40:34.702Z,55.00
2019-03-29T08:45:39.467Z,56.70
2019-03-29T08:50:44.287Z,59.60
2019-03-29T08:55:49.116Z,59.30
2019-03-29T09:05:58.000Z,56.00
2019-03-29T09:11:03.078Z,55.80
2019-03-29T09:16:07.927Z,58.00
2019-03-29T09:21:12.700Z,55.70
2019-03-29T09:26:17.494Z,57.40
2019-03-29T09:31:22.240Z,54.90
2019-03-29T09:36:26.993Z,54.90
2019-03-29T09:41:31.783Z,57.50
2019-03-29T09:46:36.544Z,57.60
2019-03-29T09:51:41.358Z,56.60
2019-03-29T09:56:48.325Z,54.70
2019-03-29T10:01:54.263Z,53.10
2019-03-29T10:06:59.471Z,57.50
2019-03-29T10:12:04.222Z,57.50
2019-03-29T10:22:13.071Z,53.00
2019-03-29T10:27:19.183Z,55.40
2019-03-29T10:32:24.105Z,54.80
2019-03-29T10:37:28.960Z,56.30
2019-03-29T10:42:33.691Z,57.00
2019-03-29T10:47:43.592Z,55.90
2019-03-29T10:52:45.469Z,55.70
2019-03-29T10:57:50.328Z,53.00
2019-03-29T11:02:55.196Z,52.80
2019-03-29T11:08:00.899Z,52.60
2019-03-29T11:13:13.365Z,51.30
2019-03-29T11:18:12.490Z,52.70
2019-03-29T11:23:17.306Z,50.30
2019-03-29T11:28:22.172Z,51.10
2019-03-29T11:33:26.999Z,52.50
2019-03-29T11:38:31.981Z,53.40
2019-03-29T11:43:36.787Z,51.80
2019-03-29T11:48:41.604Z,52.10
2019-03-29T11:53:50.712Z,52.80
2019-03-29T12:03:58.299Z,51.90
2019-03-29T12:09:04.522Z,54.10
2019-03-29T12:14:09.446Z,54.00
2019-03-29T12:19:14.204Z,52.90
2019-03-29T12:24:19.096Z,49.60
2019-03-29T12:29:24.023Z,50.80
2019-03-29T12:34:28.834Z,51.30
2019-03-29T12:39:33.594Z,53.50
2019-03-29T12:44:38.304Z,51.40
2019-03-29T12:49:43.030Z,50.90
2019-03-29T12:54:47.769Z,51.30
2019-03-29T12:59:52.517Z,52.10
2019-03-29T13:04:57.349Z,54.30
2019-03-29T13:10:02.369Z,51.70
2019-03-29T13:15:07.567Z,51.60
2019-03-29T13:20:13.110Z,52.70
2019-03-29T13:25:18.083Z,52.40
2019-03-29T13:30:23.003Z,52.00
2019-03-29T13:35:27.926Z,53.50
2019-03-29T13:40:32.692Z,50.80
2019-03-29T13:45:37.432Z,51.00
2019-03-29T13:50:42.178Z,50.30
2019-03-29T13:55:47.000Z,51.40
2019-03-29T14:00:51.817Z,51.20
2019-03-29T14:05:56.699Z,47.10
2019-03-29T14:26:16.131Z,43.90
2019-03-29T14:31:20.287Z,44.30
2019-03-29T14:36:26.398Z,41.60
2019-03-29T14:41:32.222Z,40.10
2019-03-29T14:46:37.091Z,40.40
2019-03-29T14:51:41.839Z,40.50
2019-03-29T14:56:46.609Z,39.80
2019-03-29T15:01:51.360Z,40.70
2019-03-29T15:06:56.401Z,39.90
2019-03-29T15:12:01.142Z,39.30
2019-03-29T15:22:09.996Z,38.40
2019-03-29T15:27:14.852Z,37.60
2019-03-29T15:32:19.696Z,37.90
2019-03-29T15:37:24.477Z,39.80
2019-03-29T15:42:29.339Z,39.00
2019-03-29T15:47:34.054Z,40.50
2019-03-29T15:52:38.828Z,40.40
2019-03-29T15:57:43.637Z,42.00
2019-03-29T16:02:48.352Z,45.80
2019-03-29T16:07:53.183Z,48.30
2019-03-29T16:12:59.479Z,51.10
2019-03-29T16:18:04.218Z,52.20
2019-03-29T16:23:10.015Z,54.30
2019-03-29T16:33:19.060Z,56.30
2019-03-29T16:38:25.061Z,57.80
2019-03-29T16:43:31.228Z,58.10
2019-03-29T16:48:37.146Z,59.30
2019-03-29T16:53:41.973Z,60.10
2019-03-29T16:58:47.705Z,61.60
2019-03-29T17:03:52.875Z,63.00
2019-03-29T17:08:57.761Z,64.00
2019-03-29T17:14:02.619Z,69.20
2019-03-29T17:19:08.454Z,70.60
2019-03-29T17:24:13.261Z,70.30
2019-03-29T17:29:18.039Z,75.10
2019-03-29T17:34:23.553Z,77.50
2019-03-29T17:39:28.327Z,80.00
2019-03-29T17:44:33.837Z,84.10
2019-03-29T17:49:38.631Z,88.70
2019-03-29T17:54:43.483Z,93.00
2019-03-29T17:59:48.235Z,96.80
2019-03-29T18:04:53.077Z,97.00
2019-03-29T18:10:08.640Z,99.90
2019-03-29T18:15:13.776Z,99.90
2019-03-29T18:20:18.660Z,99.90
2019-03-29T18:25:23.490Z,99.90
2019-03-29T18:30:43.963Z,99.90
2019-03-29T18:35:48.833Z,99.90
2019-03-29T18:40:53.674Z,99.90
2019-03-29T18:45:58.396Z,99.90
2019-03-29T18:51:03.228Z,99.90
2019-03-29T18:56:08.050Z,99.90
2019-03-29T19:01:12.806Z,99.90
2019-03-29T19:06:17.650Z,99.90
2019-03-29T19:11:22.502Z,99.90
2019-03-29T19:16:27.420Z,99.90
2019-03-29T19:21:32.178Z,99.90
2019-03-29T19:26:36.948Z,99.90
2019-03-29T19:31:41.767Z,99.90
2019-03-29T19:36:46.520Z,99.90
2019-03-29T19:41:51.280Z,99.90
2019-03-29T19:46:56.205Z,99.90
2019-03-29T19:52:00.996Z,99.90
2019-03-29T19:57:05.769Z,99.90
2019-03-29T20:02:10.614Z,99.90
2019-03-29T20:07:15.369Z,99.90
2019-03-29T20:12:20.274Z,99.90
2019-03-29T20:17:27.692Z,99.90
2019-03-29T20:22:31.693Z,99.90
2019-03-29T20:27:36.498Z,99.90
2019-03-29T20:32:41.362Z,99.90
2019-03-29T20:37:46.257Z,99.90
2019-03-29T20:42:51.162Z,99.90
2019-03-29T20:47:55.929Z,99.90
2019-03-29T20:53:00.680Z,99.90
2019-03-29T20:58:05.473Z,99.90
2019-03-29T21:03:10.323Z,99.90
2019-03-29T21:08:16.473Z,99.90
2019-03-29T21:13:21.329Z,99.90
2019-03-29T21:18:26.078Z,99.90
2019-03-29T21:23:32.348Z,99.90
2019-03-29T21:28:37.126Z,99.90
2019-03-29T21:33:41.929Z,99.90
2019-03-29T21:38:46.814Z,99.90
2019-03-29T21:43:51.641Z,99.90
2019-03-29T21:48:56.426Z,99.90
2019-03-29T21:54:01.292Z,99.90
2019-03-29T21:59:06.088Z,99.90
2019-03-29T22:04:10.852Z,99.90
2019-03-29T22:09:15.671Z,99.90
2019-03-29T22:14:20.427Z,99.90
2019-03-29T22:19:25.163Z,99.90
2019-03-29T22:24:29.915Z,99.90
2019-03-29T22:29:34.678Z,99.90
2019-03-29T22:34:39.461Z,99.90
2019-03-29T22:39:44.225Z,99.90
2019-03-29T22:44:49.030Z,99.90
2019-03-29T22:49:53.767Z,99.90
2019-03-29T22:54:58.552Z,99.90
2019-03-29T23:00:03.418Z,99.90
2019-03-29T23:05:08.709Z,99.90
2019-03-29T23:10:13.452Z,99.90
2019-03-29T23:15:18.208Z,99.90
2019-03-29T23:20:22.981Z,99.90
2019-03-29T23:25:27.783Z,99.90
2019-03-29T23:30:32.554Z,99.90
2019-03-29T23:35:37.369Z,99.90
2019-03-29T23:40:42.133Z,99.90
2019-03-29T23:45:47.167Z,99.90
2019-03-29T23:50:52.031Z,99.90
2019-03-29T23:55:56.812Z,99.90
